createdAt,value
2023-03-23T15:57:56.043Z,97709.01
2023-03-23T16:00:27.191Z,97708.58
2023-03-23T16:03:02.026Z,97706.94
2023-03-23T16:05:30.239Z,97710.95
2023-03-23T16:07:58.725Z,97710.56
2023-03-23T16:10:28.582Z,97714.28
2023-03-23T16:12:57.117Z,97719.17
2023-03-23T16:15:25.035Z,97723.45
2023-03-23T16:17:52.933Z,97720.52
2023-03-23T16:20:23.443Z,97724.39
2023-03-23T16:22:52.455Z,97722.60
2023-03-23T16:25:20.608Z,97721.48
2023-03-23T16:27:52.511Z,97721.77
2023-03-23T16:30:22.692Z,97723.56
2023-03-23T16:32:51.531Z,97726.91
2023-03-23T16:35:21.101Z,97729.20
2023-03-23T16:37:52.090Z,97730.42
2023-03-23T16:40:37.929Z,97738.21
2023-03-23T16:43:08.898Z,97743.11
2023-03-23T16:45:41.597Z,97742.31
2023-03-23T16:48:13.842Z,97739.55
2023-03-23T16:50:43.650Z,97738.16
2023-03-23T16:53:12.230Z,97739.59
2023-03-23T16:55:40.853Z,97737.35
2023-03-23T16:58:17.054Z,97737.55
2023-03-23T17:00:49.034Z,97732.52
2023-03-23T17:03:19.213Z,97733.69
2023-03-23T17:05:51.756Z,97736.40
2023-03-23T17:08:20.760Z,97742.98
2023-03-23T17:10:49.289Z,97744.59
2023-03-23T17:13:17.763Z,97735.74
2023-03-23T17:15:47.386Z,97737.95
2023-03-23T17:18:16.542Z,97743.98
2023-03-23T17:20:44.652Z,97751.33
2023-03-23T17:23:12.886Z,97753.61
2023-03-23T17:25:41.199Z,97755.96
2023-03-23T17:28:09.244Z,97756.63
2023-03-23T17:30:41.275Z,97758.44
2023-03-23T17:33:10.486Z,97755.09
2023-03-23T17:35:38.488Z,97762.98
2023-03-23T17:38:06.448Z,97755.88
2023-03-23T17:40:34.413Z,97752.45
2023-03-23T17:43:02.548Z,97749.61
2023-03-23T17:45:30.564Z,97747.20
2023-03-23T17:47:58.648Z,97737.45
2023-03-23T17:50:27.752Z,97734.45
2023-03-23T17:52:57.105Z,97737.25
2023-03-23T17:55:25.621Z,97736.39
2023-03-23T17:57:53.697Z,97741.55
2023-03-23T18:00:22.393Z,97744.05
2023-03-23T18:02:50.524Z,97753.37
2023-03-23T18:05:18.924Z,97758.79
2023-03-23T18:07:47.019Z,97758.28
2023-03-23T18:10:16.240Z,97764.03
2023-03-23T18:12:44.169Z,97771.42
2023-03-23T18:15:18.111Z,97776.88
2023-03-23T18:17:48.485Z,97782.65
2023-03-23T18:20:17.030Z,97785.80
2023-03-23T18:22:45.368Z,97784.56
2023-03-23T18:25:13.549Z,97783.17
2023-03-23T18:27:42.402Z,97781.55
2023-03-23T18:30:11.147Z,97786.55
2023-03-23T18:32:41.018Z,97788.23
2023-03-23T18:35:11.136Z,97788.15
2023-03-23T18:37:39.523Z,97791.02
2023-03-23T18:40:12.214Z,97788.49
2023-03-23T18:42:45.103Z,97788.78
2023-03-23T18:45:13.779Z,97788.66
2023-03-23T18:47:41.998Z,97793.02
2023-03-23T18:50:11.194Z,97790.89
2023-03-23T18:52:39.441Z,97787.66
2023-03-23T18:55:07.834Z,97786.54
2023-03-23T18:57:35.898Z,97787.88
2023-03-23T19:00:04.914Z,97784.46
2023-03-23T19:02:33.040Z,97783.30
2023-03-23T19:05:01.828Z,97782.02
2023-03-23T19:07:31.438Z,97778.45
2023-03-23T19:09:59.685Z,97781.20
2023-03-23T19:12:27.860Z,97782.35
2023-03-23T19:14:56.116Z,97786.09
2023-03-23T19:17:25.298Z,97783.21
2023-03-23T19:19:53.568Z,97778.70
2023-03-23T19:22:21.596Z,97770.27
2023-03-23T19:24:49.515Z,97767.20
2023-03-23T19:27:19.373Z,97772.10
2023-03-23T19:29:47.594Z,97776.41
2023-03-23T19:32:15.914Z,97781.66
2023-03-23T19:34:50.521Z,97785.67
2023-03-23T19:37:20.182Z,97792.08
2023-03-23T19:39:48.397Z,97789.78
2023-03-23T19:42:18.555Z,97786.17
2023-03-23T19:44:48.985Z,97784.38
2023-03-23T19:47:17.253Z,97779.27
2023-03-23T19:49:45.792Z,97782.57
2023-03-23T19:52:15.581Z,97783.80
2023-03-23T19:54:46.087Z,97785.27
2023-03-23T19:57:14.711Z,97789.11
2023-03-23T19:59:44.357Z,97791.21
2023-03-23T20:02:13.763Z,97781.95
2023-03-23T20:04:43.639Z,97797.88
2023-03-23T20:07:13.368Z,97797.59
2023-03-23T20:09:42.698Z,97801.18
2023-03-23T20:12:11.113Z,97804.08
2023-03-23T20:14:45.077Z,97814.77
2023-03-23T20:17:14.731Z,97821.80
2023-03-23T20:19:44.539Z,97826.66
2023-03-23T20:22:14.507Z,97832.67
2023-03-23T20:24:43.398Z,97834.93
2023-03-23T20:27:11.650Z,97837.87
2023-03-23T20:29:39.875Z,97843.27
2023-03-23T20:32:08.829Z,97844.78
2023-03-23T20:34:36.926Z,97842.78
2023-03-23T20:37:05.108Z,97842.17
2023-03-23T20:39:33.795Z,97841.49
2023-03-23T20:42:03.400Z,97840.33
2023-03-23T20:44:35.184Z,97835.73
2023-03-23T20:47:04.615Z,97811.20
2023-03-23T20:49:35.304Z,97837.71
2023-03-23T20:52:06.766Z,97834.98
2023-03-23T20:54:35.777Z,97832.55
2023-03-23T20:57:04.289Z,97828.83
2023-03-23T20:59:32.319Z,97828.35
2023-03-23T21:02:00.225Z,97825.00
2023-03-23T21:04:28.367Z,97818.36
2023-03-23T21:06:56.527Z,97820.74
2023-03-23T21:09:25.612Z,97820.73
2023-03-23T21:11:54.287Z,97824.44
2023-03-23T21:14:22.303Z,97825.98
2023-03-23T21:16:50.636Z,97823.04
2023-03-23T21:19:19.674Z,97824.55
2023-03-23T21:21:56.096Z,97824.48
2023-03-23T21:24:28.259Z,97836.58
2023-03-23T21:26:59.171Z,97837.29
2023-03-23T21:29:27.837Z,97840.19
2023-03-23T21:34:28.289Z,97840.27
2023-03-23T21:36:56.451Z,97841.63
2023-03-23T21:39:24.869Z,97841.77
2023-03-23T21:41:52.892Z,97841.59
2023-03-23T21:44:20.960Z,97840.44
2023-03-23T21:46:48.919Z,97837.14
2023-03-23T21:49:16.878Z,97845.45
2023-03-23T21:51:44.898Z,97848.39
2023-03-23T21:54:12.817Z,97851.20
2023-03-23T21:56:41.257Z,97852.09
2023-03-23T21:59:09.318Z,97850.64
2023-03-23T22:01:37.490Z,97850.52
2023-03-23T22:04:06.497Z,97849.58
2023-03-23T22:06:35.013Z,97850.80
2023-03-23T22:09:08.948Z,97851.85
2023-03-23T22:11:38.274Z,97849.48
2023-03-23T22:14:07.290Z,97848.98
2023-03-23T22:16:35.945Z,97845.31
2023-03-23T22:19:04.554Z,97848.69
2023-03-23T22:21:32.705Z,97848.23
2023-03-23T22:24:02.099Z,97846.61
2023-03-23T22:26:30.539Z,97848.48
2023-03-23T22:29:01.064Z,97842.73
2023-03-23T22:31:33.927Z,97844.36
2023-03-23T22:34:02.345Z,97837.42
2023-03-23T22:36:31.542Z,97837.17
2023-03-23T22:39:01.062Z,97836.96
2023-03-23T22:41:33.888Z,97840.22
2023-03-23T22:44:02.589Z,97840.40
2023-03-23T22:46:31.191Z,97835.33
2023-03-23T22:48:59.190Z,97840.02
2023-03-23T22:51:27.770Z,97839.45
2023-03-23T22:53:57.224Z,97842.38
2023-03-23T22:56:25.644Z,97842.92
2023-03-23T22:58:54.753Z,97842.45
2023-03-23T23:01:23.988Z,97841.02
2023-03-23T23:03:52.672Z,97838.83
2023-03-23T23:06:21.533Z,97839.06
2023-03-23T23:08:49.705Z,97840.15
2023-03-23T23:11:19.638Z,97840.83
2023-03-23T23:13:47.909Z,97837.67
2023-03-23T23:16:17.674Z,97835.53
2023-03-23T23:18:47.853Z,97834.75
2023-03-23T23:21:19.143Z,97834.20
2023-03-23T23:23:47.901Z,97838.69
2023-03-23T23:26:16.764Z,97840.02
2023-03-23T23:28:46.788Z,97841.38
2023-03-23T23:31:31.502Z,97839.73
2023-03-23T23:34:01.547Z,97840.27
2023-03-23T23:36:32.040Z,97837.34
2023-03-23T23:39:01.647Z,97839.73
2023-03-23T23:41:30.954Z,97840.41
2023-03-23T23:43:59.818Z,97844.19
2023-03-23T23:46:31.033Z,97840.39
2023-03-23T23:49:01.215Z,97838.03
2023-03-23T23:51:30.221Z,97844.84
2023-03-23T23:54:01.894Z,97840.58
2023-03-23T23:56:30.489Z,97841.46
2023-03-23T23:58:58.860Z,97839.16
